Time;durP1;ratioP1;P1;durP2;ratioP2;P2;SDS_P1;SDS_P2;PMS_P1;PMS_P2;Temp;Humidity;BMP_temperature;BMP_pressure;BME280_temperature;BME280_humidity;BME280_pressure;Samples;Min_cycle;Max_cycle;Signal;HPM_P1;HPM_P2
2023/04/17 00:00:52;;;;;;;13.98;11.02;;;;;;;6.39;50.27;96088.66;4943958;28;20042;-71
2023/04/17 00:03:17;;;;;;;16.17;11.05;;;;;;;6.59;49.40;96084.22;4946192;28;20436;-71
2023/04/17 00:05:45;;;;;;;16.58;12.20;;;;;;;6.71;49.07;96089.38;4947744;28;20047;-71
2023/04/17 00:08:11;;;;;;;16.70;12.20;;;;;;;6.77;48.60;96086.97;4949905;28;20074;-71
2023/04/17 00:10:36;;;;;;;15.82;11.48;;;;;;;6.82;48.68;96086.56;4948738;28;20030;-72
2023/04/17 00:13:01;;;;;;;15.73;11.90;;;;;;;6.83;48.14;96087.41;4951382;28;20134;-71
2023/04/17 00:15:27;;;;;;;17.48;12.63;;;;;;;6.83;48.59;96082.13;4954099;28;20027;-71
2023/04/17 00:17:52;;;;;;;15.70;12.00;;;;;;;6.84;48.27;96083.78;4954149;28;20058;-71
2023/04/17 00:20:18;;;;;;;16.70;11.35;;;;;;;6.77;48.04;96079.03;4952911;28;20117;-71
2023/04/17 00:22:43;;;;;;;15.45;11.52;;;;;;;6.75;48.42;96086.31;4953475;28;20031;-72
2023/04/17 00:25:13;;;;;;;17.77;12.55;;;;;;;6.74;48.50;96075.84;4950946;28;20070;-71
2023/04/17 00:27:40;;;;;;;18.35;12.82;;;;;;;6.69;48.36;96084.22;4953419;28;20089;-71
2023/04/17 00:30:06;;;;;;;22.83;17.35;;;;;;;6.14;49.10;96075.03;4952267;28;20035;-71
2023/04/17 00:32:32;;;;;;;20.13;15.50;;;;;;;5.25;52.57;96084.56;4950023;28;20042;-71
2023/04/17 00:34:57;;;;;;;17.92;13.73;;;;;;;5.00;54.25;96089.31;4953448;28;20297;-71
2023/04/17 00:37:22;;;;;;;22.02;16.58;;;;;;;4.64;55.02;96084.38;4951354;28;20035;-71
2023/04/17 00:39:48;;;;;;;23.02;16.88;;;;;;;4.84;54.11;96088.78;4950655;28;20043;-71
2023/04/17 00:42:13;;;;;;;23.08;16.90;;;;;;;4.90;54.55;96082.16;4950406;28;20242;-72
2023/04/17 00:44:39;;;;;;;16.85;12.75;;;;;;;5.16;53.75;96081.75;4951374;28;20074;-71
2023/04/17 00:47:04;;;;;;;25.40;15.55;;;;;;;5.41;53.50;96076.97;4953700;28;20811;-71
2023/04/17 00:49:29;;;;;;;19.00;14.10;;;;;;;5.55;53.41;96085.50;4952654;28;20453;-71
2023/04/17 00:51:55;;;;;;;18.88;15.20;;;;;;;5.85;52.93;96074.03;4950351;28;20042;-71
2023/04/17 00:54:21;;;;;;;19.30;13.70;;;;;;;6.15;51.21;96074.06;4950450;28;20070;-71
2023/04/17 00:56:47;;;;;;;17.42;12.15;;;;;;;6.35;50.12;96076.69;4948759;28;20099;-71
2023/04/17 00:59:14;;;;;;;15.02;11.55;;;;;;;6.55;49.29;96071.41;4951751;28;20133;-71
2023/04/17 01:01:43;;;;;;;21.70;15.07;;;;;;;6.67;50.14;96078.25;4930837;28;20500;-71
2023/04/17 01:04:09;;;;;;;17.20;13.88;;;;;;;6.77;49.84;96070.28;4953757;28;20081;-71
2023/04/17 01:06:37;;;;;;;20.48;13.45;;;;;;;6.85;49.63;96072.22;4949007;28;20326;-71
2023/04/17 01:09:03;;;;;;;19.15;13.88;;;;;;;6.83;49.78;96075.00;4951706;28;20046;-71
2023/04/17 01:11:28;;;;;;;22.70;15.57;;;;;;;6.63;49.52;96069.75;4952536;28;20296;-71
2023/04/17 01:13:54;;;;;;;17.80;13.02;;;;;;;6.59;49.85;96072.81;4954477;28;20508;-71
2023/04/17 01:16:19;;;;;;;18.60;13.32;;;;;;;6.58;50.50;96071.13;4954256;28;20351;-71
2023/04/17 01:18:47;;;;;;;16.70;12.40;;;;;;;6.32;50.42;96069.06;4953100;28;20245;-71
2023/04/17 01:21:12;;;;;;;23.40;17.17;;;;;;;6.10;53.49;96074.50;4955213;28;20138;-71
2023/04/17 01:23:50;;;;;;;24.48;18.23;;;;;;;5.62;54.87;96070.81;4953240;28;20038;-71
2023/04/17 01:26:17;;;;;;;22.30;16.52;;;;;;;5.69;54.17;96076.38;4953795;28;20036;-71
2023/04/17 01:28:42;;;;;;;23.92;18.27;;;;;;;5.30;55.30;96077.91;4954919;28;20522;-71
2023/04/17 01:31:08;;;;;;;26.35;19.88;;;;;;;4.35;60.07;96083.19;4957966;28;20031;-71
2023/04/17 01:33:33;;;;;;;26.40;18.65;;;;;;;4.56;59.83;96074.47;4957705;28;20318;-71
2023/04/17 01:35:59;;;;;;;25.45;19.83;;;;;;;4.62;59.78;96078.41;4956497;28;20038;-71
2023/04/17 01:38:24;;;;;;;24.67;20.27;;;;;;;4.32;60.84;96088.75;4957853;28;20463;-71
2023/04/17 01:40:50;;;;;;;25.95;19.45;;;;;;;4.57;60.81;96078.78;4951072;28;20546;-71
2023/04/17 01:43:15;;;;;;;22.25;16.25;;;;;;;5.26;56.12;96075.66;4951909;28;20055;-71
2023/04/17 01:45:40;;;;;;;20.85;16.23;;;;;;;5.84;54.67;96071.53;4953942;28;20420;-71
2023/04/17 01:48:09;;;;;;;19.77;14.60;;;;;;;6.27;51.88;96074.75;4955669;28;20038;-71
2023/04/17 01:50:34;;;;;;;19.20;14.75;;;;;;;6.49;50.73;96068.38;4956210;28;20445;-71
2023/04/17 01:53:00;;;;;;;22.48;17.23;;;;;;;6.32;52.35;96063.78;4955959;28;20075;-71
2023/04/17 01:55:25;;;;;;;19.50;15.68;;;;;;;6.25;52.05;96066.13;4956324;28;20104;-71
2023/04/17 01:57:50;;;;;;;20.75;15.40;;;;;;;6.62;49.98;96059.28;4955674;28;20058;-71
2023/04/17 02:00:16;;;;;;;19.55;15.52;;;;;;;6.86;50.13;96057.97;4953027;28;20043;-71
2023/04/17 02:02:41;;;;;;;21.13;15.85;;;;;;;6.81;50.49;96065.53;4949171;28;20039;-71
2023/04/17 02:05:07;;;;;;;18.70;14.40;;;;;;;6.91;49.22;96069.00;4952454;28;20158;-71
2023/04/17 02:07:32;;;;;;;20.20;16.40;;;;;;;7.05;48.93;96065.06;4952239;28;20035;-71
2023/04/17 02:09:57;;;;;;;23.67;17.80;;;;;;;6.76;50.77;96058.00;4952905;28;20037;-71
2023/04/17 02:12:23;;;;;;;19.83;14.57;;;;;;;6.61;49.80;96065.56;4951529;28;20053;-71
2023/04/17 02:14:48;;;;;;;24.38;18.27;;;;;;;5.64;53.96;96063.56;4957525;28;20031;-71
2023/04/17 02:17:14;;;;;;;32.10;21.17;;;;;;;4.26;58.49;96076.06;4952468;28;20066;-71
2023/04/17 02:19:39;;;;;;;22.50;18.23;;;;;;;4.61;57.10;96072.28;4952803;28;20027;-71
2023/04/17 02:22:04;;;;;;;26.13;19.67;;;;;;;5.20;55.76;96066.47;4952646;28;20670;-71
2023/04/17 02:24:30;;;;;;;20.95;15.50;;;;;;;5.76;52.87;96056.38;4953049;28;20106;-71
2023/04/17 02:26:56;;;;;;;23.40;16.88;;;;;;;6.02;52.92;96055.81;4949752;28;20315;-71
2023/04/17 02:29:21;;;;;;;24.55;17.15;;;;;;;6.12;51.93;96054.03;4953674;28;20054;-71
2023/04/17 02:31:47;;;;;;;21.63;17.05;;;;;;;5.94;53.54;96053.88;4950581;28;20039;-71
2023/04/17 02:34:12;;;;;;;23.88;17.25;;;;;;;6.14;52.16;96053.88;4953670;28;20440;-71
2023/04/17 02:36:37;;;;;;;21.48;17.00;;;;;;;6.06;51.91;96051.91;4951292;28;20042;-71
2023/04/17 02:39:04;;;;;;;22.25;17.10;;;;;;;5.97;52.99;96047.47;4951143;28;20031;-71
2023/04/17 02:41:29;;;;;;;25.98;19.33;;;;;;;5.42;54.35;96059.34;4948693;28;20054;-71
2023/04/17 02:43:56;;;;;;;24.95;18.60;;;;;;;4.65;57.10;96060.50;4945859;28;20241;-71
2023/04/17 02:46:22;;;;;;;30.05;22.10;;;;;;;3.07;62.89;96066.97;4948129;28;20457;-71
2023/04/17 02:48:47;;;;;;;31.10;21.83;;;;;;;4.18;59.28;96056.44;4947214;28;20036;-71
2023/04/17 02:51:12;;;;;;;26.80;19.42;;;;;;;4.89;57.09;96054.09;4948904;28;20065;-71
2023/04/17 02:53:38;;;;;;;24.98;19.25;;;;;;;4.86;57.49;96058.81;4949436;28;20558;-71
2023/04/17 02:56:04;;;;;;;25.38;19.52;;;;;;;5.07;55.21;96061.44;4949705;28;20328;-71
2023/04/17 02:58:29;;;;;;;26.35;20.23;;;;;;;4.62;57.14;96058.13;4949472;28;20122;-71
2023/04/17 03:01:00;;;;;;;33.83;24.08;;;;;;;3.31;62.77;96063.34;4948254;28;20412;-72
2023/04/17 03:03:33;;;;;;;34.05;21.77;;;;;;;4.22;58.49;96064.09;4947859;28;20031;-71
2023/04/17 03:05:59;;;;;;;31.52;21.25;;;;;;;3.66;60.86;96062.38;4947076;28;20439;-71
2023/04/17 03:08:24;;;;;;;25.30;18.85;;;;;;;4.56;58.03;96058.66;4947947;28;20043;-71
2023/04/17 03:10:49;;;;;;;31.23;23.38;;;;;;;3.96;59.72;96060.00;4951465;28;20457;-71
2023/04/17 03:13:15;;;;;;;24.73;19.83;;;;;;;4.12;59.77;96059.56;4947584;28;20062;-71
2023/04/17 03:15:40;;;;;;;30.30;22.33;;;;;;;3.83;60.45;96057.53;4949466;28;20039;-71
2023/04/17 03:18:06;;;;;;;27.77;21.10;;;;;;;4.22;59.44;96072.00;4948003;28;20031;-71
2023/04/17 03:20:31;;;;;;;27.83;20.52;;;;;;;4.62;58.00;96068.66;4949996;28;20050;-71
2023/04/17 03:22:56;;;;;;;29.70;20.90;;;;;;;4.96;56.24;96071.09;4948888;28;20370;-71
2023/04/17 03:25:22;;;;;;;20.65;15.35;;;;;;;4.77;55.56;96073.63;4950178;28;20047;-71
2023/04/17 03:27:47;;;;;;;21.45;15.90;;;;;;;5.30;53.55;96072.63;4952635;28;20563;-71
2023/04/17 03:30:13;;;;;;;21.05;15.65;;;;;;;5.71;52.31;96071.78;4950827;28;20030;-71
2023/04/17 03:32:38;;;;;;;22.67;17.40;;;;;;;5.93;52.87;96061.94;4944448;28;20043;-71
2023/04/17 03:35:04;;;;;;;21.75;16.65;;;;;;;6.01;51.73;96070.00;4949757;28;20058;-71
2023/04/17 03:37:30;;;;;;;19.70;15.32;;;;;;;6.11;50.67;96067.38;4950532;28;20404;-71
2023/04/17 03:39:56;;;;;;;20.25;14.52;;;;;;;6.17;50.46;96071.28;4945858;28;20035;-71
2023/04/17 03:42:21;;;;;;;18.95;14.85;;;;;;;6.24;50.16;96067.94;4948330;28;20046;-71
2023/04/17 03:44:47;;;;;;;19.10;14.77;;;;;;;6.25;50.13;96068.75;4950931;28;20050;-72
2023/04/17 03:47:12;;;;;;;19.00;14.38;;;;;;;6.24;49.80;96064.47;4947943;28;20105;-72
2023/04/17 03:49:37;;;;;;;20.10;15.27;;;;;;;6.19;49.78;96069.34;4946934;28;20043;-72
2023/04/17 03:52:03;;;;;;;18.23;14.38;;;;;;;6.14;49.94;96069.75;4949734;28;20039;-71
2023/04/17 03:54:28;;;;;;;19.08;14.70;;;;;;;6.15;50.13;96070.59;4947181;28;20089;-71
2023/04/17 03:56:54;;;;;;;18.67;13.82;;;;;;;6.13;49.91;96060.97;4948392;28;20035;-71
2023/04/17 03:59:22;;;;;;;16.83;13.05;;;;;;;6.22;49.82;96067.25;4948324;28;20121;-71
2023/04/17 04:01:48;;;;;;;21.85;17.77;;;;;;;6.06;50.81;96067.78;4945400;28;20042;-71
2023/04/17 04:04:13;;;;;;;19.60;15.20;;;;;;;6.12;50.35;96071.69;4945489;28;20042;-71
2023/04/17 04:06:39;;;;;;;19.60;13.95;;;;;;;6.18;50.14;96068.50;4949140;28;20507;-71
2023/04/17 04:09:05;;;;;;;18.20;14.00;;;;;;;6.28;49.81;96068.50;4947915;28;20050;-71
2023/04/17 04:11:30;;;;;;;20.00;13.95;;;;;;;6.34;49.21;96070.59;4947426;28;20054;-71
2023/04/17 04:13:56;;;;;;;18.98;13.45;;;;;;;6.36;49.19;96070.44;4946306;28;20435;-71
2023/04/17 04:16:21;;;;;;;17.23;13.30;;;;;;;6.42;49.28;96072.50;4944905;28;20043;-71
2023/04/17 04:18:47;;;;;;;15.90;12.40;;;;;;;6.52;48.96;96077.00;4947272;28;20047;-71
2023/04/17 04:21:12;;;;;;;20.70;15.10;;;;;;;6.56;49.21;96068.63;4948947;28;20346;-71
2023/04/17 04:23:39;;;;;;;21.25;15.68;;;;;;;6.59;48.91;96078.09;4948033;28;20105;-72
2023/04/17 04:26:05;;;;;;;19.92;13.23;;;;;;;6.66;48.43;96071.25;4946598;28;20069;-71
2023/04/17 04:28:30;;;;;;;18.55;14.00;;;;;;;6.69;48.55;96072.78;4948808;28;20069;-71
2023/04/17 04:30:57;;;;;;;20.08;14.13;;;;;;;6.80;48.21;96083.22;4943576;28;20384;-71
2023/04/17 04:33:23;;;;;;;18.02;13.43;;;;;;;6.92;48.04;96078.59;4941100;28;20050;-71
2023/04/17 04:35:50;;;;;;;16.13;12.82;;;;;;;6.97;47.93;96078.19;4945100;28;20046;-71
2023/04/17 04:38:16;;;;;;;16.80;13.25;;;;;;;7.01;48.00;96080.38;4948250;28;20431;-71
2023/04/17 04:40:42;;;;;;;18.38;13.90;;;;;;;7.09;47.78;96081.47;4951345;28;20113;-71
2023/04/17 04:43:08;;;;;;;16.55;13.18;;;;;;;7.16;47.72;96085.22;4945119;28;20110;-71
2023/04/17 04:45:34;;;;;;;19.40;13.63;;;;;;;7.20;47.46;96083.94;4943748;28;20509;-71
2023/04/17 04:47:59;;;;;;;19.25;15.00;;;;;;;7.21;47.39;96090.09;4950004;28;20086;-71
2023/04/17 04:50:25;;;;;;;16.95;13.40;;;;;;;7.20;47.65;96091.03;4946001;28;20043;-71
2023/04/17 04:52:50;;;;;;;18.95;14.13;;;;;;;7.27;47.19;96084.19;4949153;28;20039;-71
2023/04/17 04:55:16;;;;;;;17.80;13.65;;;;;;;7.31;47.27;96088.22;4949265;28;20748;-71
2023/04/17 04:57:41;;;;;;;23.10;17.13;;;;;;;7.34;49.30;96089.75;4952928;28;20507;-71
2023/04/17 05:00:08;;;;;;;17.50;12.55;;;;;;;7.36;47.26;96080.69;4947184;28;20098;-71
2023/04/17 05:02:33;;;;;;;16.58;12.85;;;;;;;7.41;47.42;96091.66;4948933;28;20035;-71
2023/04/17 05:04:59;;;;;;;20.08;14.43;;;;;;;7.43;46.85;96086.22;4950853;28;20367;-71
2023/04/17 05:07:24;;;;;;;18.98;14.95;;;;;;;7.29;48.81;96092.84;4952372;28;20404;-71
2023/04/17 05:09:50;;;;;;;23.45;16.70;;;;;;;7.14;49.36;96093.28;4968942;28;20403;-71
2023/04/17 05:12:15;;;;;;;17.80;13.98;;;;;;;6.91;48.54;96098.13;4971180;28;20290;-71
2023/04/17 05:14:41;;;;;;;16.50;12.43;;;;;;;6.67;49.33;96096.78;4975150;28;20479;-71
2023/04/17 05:17:07;;;;;;;21.17;17.15;;;;;;;6.49;52.09;96102.75;4971901;28;20153;-71
2023/04/17 05:19:32;;;;;;;18.67;13.43;;;;;;;6.23;51.41;96105.91;4972144;28;20113;-71
2023/04/17 05:21:58;;;;;;;21.00;17.35;;;;;;;6.09;52.46;96103.72;4969448;28;20064;-71
2023/04/17 05:24:23;;;;;;;17.48;12.80;;;;;;;6.76;49.83;96110.94;4969274;28;20510;-71
2023/04/17 05:26:48;;;;;;;21.70;15.98;;;;;;;7.08;50.27;96108.94;4974493;28;20455;-71
2023/04/17 05:29:14;;;;;;;18.63;11.55;;;;;;;7.39;47.75;96111.34;4969863;28;20034;-71
2023/04/17 05:31:39;;;;;;;14.98;11.82;;;;;;;7.59;47.47;96109.44;4974805;28;20046;-71
2023/04/17 05:34:05;;;;;;;17.02;11.95;;;;;;;7.78;46.63;96102.38;4970963;28;20042;-71
2023/04/17 05:36:31;;;;;;;17.10;13.32;;;;;;;7.95;45.86;96105.25;4970756;28;20069;-71
2023/04/17 05:38:56;;;;;;;13.80;10.68;;;;;;;8.00;46.01;96109.13;4970394;28;20045;-71
2023/04/17 05:41:22;;;;;;;14.30;11.18;;;;;;;8.26;45.23;96108.34;4969591;28;20054;-71
2023/04/17 05:43:47;;;;;;;17.38;13.82;;;;;;;8.43;45.54;96119.94;4967095;28;20066;-71
2023/04/17 05:46:12;;;;;;;17.02;12.05;;;;;;;8.44;45.20;96110.19;4970490;28;20038;-71
2023/04/17 05:48:38;;;;;;;15.90;12.15;;;;;;;8.38;45.42;96110.78;4972036;28;20061;-71
2023/04/17 05:51:03;;;;;;;13.48;10.88;;;;;;;8.42;45.83;96115.66;4968932;28;20105;-71
2023/04/17 05:53:30;;;;;;;13.63;10.88;;;;;;;8.56;45.54;96116.91;4966649;28;20066;-71
2023/04/17 05:55:55;;;;;;;16.33;10.80;;;;;;;8.49;45.48;96115.84;4970265;28;20461;-71
2023/04/17 05:58:20;;;;;;;13.63;10.40;;;;;;;8.64;44.70;96117.97;4966687;28;20035;-71
2023/04/17 06:00:46;;;;;;;13.20;9.60;;;;;;;8.84;44.19;96117.81;4964805;28;20039;-71
2023/04/17 06:03:11;;;;;;;13.95;10.52;;;;;;;8.99;43.93;96118.09;4970956;28;20039;-71
2023/04/17 06:05:37;;;;;;;12.68;9.48;;;;;;;9.00;43.72;96115.28;4971265;28;20343;-71
2023/04/17 06:08:02;;;;;;;12.68;9.82;;;;;;;9.07;43.38;96118.13;4969079;28;20265;-71
2023/04/17 06:10:28;;;;;;;13.93;11.38;;;;;;;9.02;44.91;96123.94;4970931;28;20073;-71
2023/04/17 06:12:53;;;;;;;15.32;11.35;;;;;;;8.53;45.58;96117.22;4969602;28;20050;-71
2023/04/17 06:15:19;;;;;;;13.50;10.50;;;;;;;7.87;46.71;96124.53;4975327;28;20516;-71
2023/04/17 06:17:44;;;;;;;14.55;11.18;;;;;;;8.39;46.36;96128.34;4968448;28;20031;-71
2023/04/17 06:20:10;;;;;;;11.45;9.32;;;;;;;8.66;44.57;96130.09;4973380;28;20042;-71
2023/04/17 06:22:36;;;;;;;15.63;11.32;;;;;;;8.85;45.06;96135.38;4970202;28;20034;-72
2023/04/17 06:25:02;;;;;;;15.65;11.50;;;;;;;9.00;45.91;96141.00;4969134;28;20499;-72
2023/04/17 06:27:27;;;;;;;13.35;10.80;;;;;;;9.08;44.06;96128.63;4972569;28;20050;-71
2023/04/17 06:29:53;;;;;;;13.25;9.25;;;;;;;9.29;43.15;96132.72;4967916;28;20034;-71
2023/04/17 06:32:18;;;;;;;11.32;8.90;;;;;;;9.46;42.59;96135.50;4970892;28;20042;-72
2023/04/17 06:34:44;;;;;;;12.13;9.50;;;;;;;9.59;42.52;96137.72;4968339;28;20034;-71
2023/04/17 06:37:09;;;;;;;11.90;8.93;;;;;;;9.65;42.25;96138.91;4972555;28;20109;-72
2023/04/17 06:39:35;;;;;;;12.68;9.40;;;;;;;9.73;41.82;96146.91;4969972;28;20038;-72
2023/04/17 06:42:01;;;;;;;11.73;9.35;;;;;;;9.72;42.52;96148.72;4972884;28;20210;-71
2023/04/17 06:44:27;;;;;;;14.73;10.85;;;;;;;9.55;42.55;96139.00;4969667;28;20404;-71
2023/04/17 06:46:52;;;;;;;12.07;10.30;;;;;;;8.95;44.25;96149.44;4967682;28;20046;-70
2023/04/17 06:49:18;;;;;;;16.48;13.23;;;;;;;8.88;45.30;96146.53;4966991;28;20503;-70
2023/04/17 06:51:44;;;;;;;13.50;9.82;;;;;;;9.01;43.71;96148.00;4967436;28;20104;-70
2023/04/17 06:54:10;;;;;;;13.40;9.98;;;;;;;9.22;43.67;96147.66;4964045;28;20142;-69
2023/04/17 06:56:35;;;;;;;12.77;9.55;;;;;;;9.50;43.50;96154.59;4962293;28;20125;-70
2023/04/17 06:59:01;;;;;;;13.32;10.57;;;;;;;9.48;43.37;96154.75;4963648;28;20518;-72
2023/04/17 07:01:28;;;;;;;12.63;9.50;;;;;;;9.53;42.68;96157.78;4964167;28;20054;-72
2023/04/17 07:03:53;;;;;;;20.95;12.93;;;;;;;9.35;44.79;96149.84;4962768;28;20053;-72
2023/04/17 07:06:18;;;;;;;11.90;8.98;;;;;;;9.63;42.69;96151.50;4965226;28;20035;-72
2023/04/17 07:08:44;;;;;;;14.50;11.85;;;;;;;9.61;43.47;96159.63;4968345;28;20049;-71
2023/04/17 07:11:09;;;;;;;15.00;10.50;;;;;;;9.64;43.44;96159.34;4969166;28;20698;-71
2023/04/17 07:13:35;;;;;;;15.05;11.43;;;;;;;9.37;43.73;96157.66;4967214;28;20042;-71
2023/04/17 07:16:00;;;;;;;16.52;12.65;;;;;;;8.40;46.28;96164.53;4967275;28;20097;-71
2023/04/17 07:18:28;;;;;;;13.18;10.25;;;;;;;8.51;45.19;96159.00;4968114;28;20114;-71
2023/04/17 07:20:54;;;;;;;11.87;9.13;;;;;;;8.90;44.69;96168.47;4970462;28;20054;-72
2023/04/17 07:23:19;;;;;;;13.43;9.65;;;;;;;8.61;45.04;96171.38;4963472;28;20117;-77
2023/04/17 07:25:44;;;;;;;15.35;11.18;;;;;;;8.85;45.26;96164.59;4967610;28;20076;-77
2023/04/17 07:28:10;;;;;;;15.07;11.82;;;;;;;8.61;46.16;96166.91;4964560;28;20046;-77
2023/04/17 07:30:35;;;;;;;17.02;11.98;;;;;;;8.68;45.61;96169.78;4970384;28;20057;-77
2023/04/17 07:33:01;;;;;;;13.30;10.68;;;;;;;9.12;44.61;96165.50;4964990;28;20113;-77
2023/04/17 07:35:26;;;;;;;15.18;10.50;;;;;;;9.69;43.41;96174.81;4971900;28;20050;-77
2023/04/17 07:37:52;;;;;;;14.98;11.75;;;;;;;9.21;45.64;96175.19;4969434;28;20018;-77
2023/04/17 07:40:18;;;;;;;16.10;11.20;;;;;;;9.56;43.76;96176.06;4968010;28;20582;-76
2023/04/17 07:42:43;;;;;;;15.23;11.88;;;;;;;10.17;42.11;96177.84;4970293;28;20026;-74
2023/04/17 07:45:09;;;;;;;16.25;12.10;;;;;;;10.60;40.81;96174.28;4962911;28;20049;-67
2023/04/17 07:47:35;;;;;;;14.98;11.23;;;;;;;10.78;41.43;96181.28;4968093;28;20031;-63
2023/04/17 07:50:00;;;;;;;15.80;12.23;;;;;;;11.21;40.19;96173.97;4965787;28;20043;-74
2023/04/17 07:52:26;;;;;;;18.02;14.30;;;;;;;11.36;38.84;96179.44;4966808;28;20042;-74
2023/04/17 07:54:51;;;;;;;17.38;12.82;;;;;;;11.26;39.51;96178.81;4966770;28;20030;-73
2023/04/17 07:57:17;;;;;;;19.80;14.48;;;;;;;11.34;38.60;96178.81;4967146;28;20039;-74
2023/04/17 07:59:43;;;;;;;14.43;9.52;;;;;;;11.38;38.92;96181.94;4969762;28;20117;-74
2023/04/17 08:02:08;;;;;;;12.98;10.43;;;;;;;11.27;39.34;96183.13;4965667;28;20027;-75
2023/04/17 08:04:33;;;;;;;12.55;9.98;;;;;;;11.01;39.18;96176.13;4965946;28;20042;-74
2023/04/17 08:06:59;;;;;;;15.68;12.10;;;;;;;10.44;41.01;96177.75;4966697;28;20027;-74
2023/04/17 08:09:24;;;;;;;16.48;11.98;;;;;;;9.95;41.35;96187.22;4965811;28;20356;-74
2023/04/17 08:11:50;;;;;;;18.60;14.75;;;;;;;10.56;40.50;96194.22;4965350;28;20080;-74
2023/04/17 08:14:18;;;;;;;14.15;10.75;;;;;;;10.94;39.65;96191.94;4965945;28;20210;-74
2023/04/17 08:16:47;;;;;;;17.20;13.25;;;;;;;11.25;39.00;96195.78;4966320;28;20046;-74
2023/04/17 08:19:12;;;;;;;12.98;9.93;;;;;;;10.93;40.81;96195.63;4965102;28;20153;-74
2023/04/17 08:21:38;;;;;;;20.45;13.77;;;;;;;10.93;38.93;96197.44;4968124;28;20563;-74
2023/04/17 08:24:03;;;;;;;17.95;11.32;;;;;;;8.51;45.25;96201.47;4965374;28;20050;-74
2023/04/17 08:26:29;;;;;;;13.57;10.70;;;;;;;7.09;48.97;96204.13;4966508;28;20443;-73
2023/04/17 08:28:54;;;;;;;16.27;12.18;;;;;;;7.23;49.05;96208.13;4961849;28;20034;-73
2023/04/17 08:31:20;;;;;;;15.32;11.57;;;;;;;8.86;44.69;96212.25;4967645;28;20240;-73
2023/04/17 08:33:45;;;;;;;24.17;19.30;;;;;;;9.91;41.98;96204.47;4965130;28;20129;-73
2023/04/17 08:36:11;;;;;;;13.25;9.95;;;;;;;9.97;42.78;96206.50;4968644;28;20411;-74
2023/04/17 08:38:36;;;;;;;18.02;13.23;;;;;;;10.35;41.51;96203.50;4967671;28;20045;-74
2023/04/17 08:41:04;;;;;;;16.58;12.77;;;;;;;10.61;41.57;96199.91;4969086;28;20045;-73
2023/04/17 08:43:32;;;;;;;23.77;19.55;;;;;;;11.06;38.96;96205.78;4965401;28;20356;-74
2023/04/17 08:45:57;;;;;;;;;;;;;;;11.48;39.01;96197.75;4950377;28;20102;-73
2023/04/17 08:48:23;;;;;;;14.83;10.93;;;;;;;11.82;37.61;96198.50;4967078;28;20613;-74
2023/04/17 08:50:50;;;;;;;30.90;23.17;;;;;;;11.70;37.16;96196.19;4964085;28;20372;-74
2023/04/17 08:53:16;;;;;;;25.48;19.73;;;;;;;12.11;36.80;96202.44;4964809;28;20427;-74
2023/04/17 08:55:42;;;;;;;23.42;17.58;;;;;;;12.62;35.58;96201.19;4964882;28;20255;-74
2023/04/17 08:58:08;;;;;;;25.73;18.92;;;;;;;13.11;35.20;96202.69;4963670;28;20038;-74
2023/04/17 09:00:38;;;;;;;17.48;13.30;;;;;;;13.62;32.94;96203.06;4966613;28;20042;-74
2023/04/17 09:03:06;;;;;;;20.83;15.50;;;;;;;13.79;33.29;96207.22;4968277;28;20717;-74
2023/04/17 09:05:37;;;;;;;27.05;21.25;;;;;;;13.60;33.22;96202.44;4965929;28;20729;-74
2023/04/17 09:08:23;;;;;;;27.25;20.98;;;;;;;13.57;33.12;96214.31;4974251;28;20132;-74
2023/04/17 09:10:49;;;;;;;25.10;16.08;;;;;;;13.90;31.53;96205.16;4964041;28;20380;-74
2023/04/17 09:13:16;;;;;;;20.48;16.20;;;;;;;14.20;31.79;96213.13;4966567;28;20129;-74
2023/04/17 09:15:42;;;;;;;17.58;12.40;;;;;;;13.96;30.31;96215.09;4963169;28;20030;-74
2023/04/17 09:18:34;;;;;;;12.63;9.85;;;;;;;14.00;31.32;96220.94;4966704;28;20343;-74
2023/04/17 09:21:00;;;;;;;12.23;8.63;;;;;;;14.38;30.59;96219.97;4965463;28;20740;-74
2023/04/17 09:23:26;;;;;;;17.42;12.38;;;;;;;14.79;30.58;96218.59;4965419;28;20484;-73
2023/04/17 09:26:08;;;;;;;13.05;8.98;;;;;;;15.10;30.12;96212.09;4971607;28;20037;-73
2023/04/17 09:28:40;;;;;;;10.48;6.30;;;;;;;14.99;29.08;96213.41;4958295;28;20053;-74
2023/04/17 09:31:17;;;;;;;10.65;8.13;;;;;;;14.84;29.30;96213.47;4965744;28;20423;-74
2023/04/17 09:34:03;;;;;;;17.48;11.07;;;;;;;14.63;31.42;96220.47;4970308;28;20066;-74
2023/04/17 09:36:30;;;;;;;18.55;14.88;;;;;;;15.42;30.24;96215.25;4964220;28;20493;-74
2023/04/17 09:39:01;;;;;;;16.52;12.00;;;;;;;15.58;29.74;96218.69;4973094;28;21776;-74
2023/04/17 09:41:30;;;;;;;20.08;14.48;;;;;;;16.09;29.47;96225.63;4973143;28;20440;-74
2023/04/17 09:44:00;;;;;;;15.77;12.45;;;;;;;15.48;28.98;96222.53;4954162;28;20479;-74
2023/04/17 09:46:40;;;;;;;16.13;11.48;;;;;;;15.81;28.78;96218.41;4971175;28;20363;-74
2023/04/17 09:49:13;;;;;;;19.98;11.90;;;;;;;15.94;29.24;96225.72;4970817;28;20394;-74
2023/04/17 09:51:38;;;;;;;13.35;10.32;;;;;;;15.48;28.17;96221.69;4972428;28;20038;-74
2023/04/17 09:54:05;;;;;;;10.95;7.85;;;;;;;15.78;27.68;96220.69;4974887;28;20479;-74
2023/04/17 09:56:34;;;;;;;12.40;8.32;;;;;;;15.82;28.21;96222.78;4969461;28;21215;-74
2023/04/17 09:59:04;;;;;;;16.98;13.93;;;;;;;15.90;28.64;96221.78;4972849;28;20113;-74
2023/04/17 10:01:31;;;;;;;12.48;9.63;;;;;;;16.26;28.11;96228.78;4969077;28;20137;-74
2023/04/17 10:04:00;;;;;;;19.97;14.93;;;;;;;16.04;28.22;96225.38;4974446;28;20121;-74
2023/04/17 10:06:26;;;;;;;16.88;12.55;;;;;;;16.27;27.99;96224.25;4967214;28;20275;-74
2023/04/17 10:08:51;;;;;;;17.02;13.73;;;;;;;16.12;28.54;96232.44;4966404;28;20511;-74
2023/04/17 10:11:16;;;;;;;16.20;13.52;;;;;;;16.66;27.90;96229.19;4956146;28;20515;-74
2023/04/17 10:13:42;;;;;;;12.05;8.70;;;;;;;16.63;26.71;96222.34;4971940;28;20565;-74
2023/04/17 10:16:07;;;;;;;14.55;11.95;;;;;;;16.75;27.42;96226.09;4955864;28;20100;-74
2023/04/17 10:18:33;;;;;;;15.88;11.63;;;;;;;17.09;27.62;96220.78;4975466;28;20070;-75
2023/04/17 10:21:00;;;;;;;17.20;12.55;;;;;;;17.24;26.72;96220.63;4975731;28;20037;-75
2023/04/17 10:23:35;;;;;;;18.30;12.15;;;;;;;17.22;26.16;96213.78;4977033;28;20031;-75
2023/04/17 10:26:25;;;;;;;18.00;13.45;;;;;;;17.48;26.20;96206.75;4980359;28;20046;-74
2023/04/17 10:28:52;;;;;;;11.57;8.77;;;;;;;17.79;26.14;96214.16;4983992;28;20050;-75
2023/04/17 10:31:22;;;;;;;10.63;8.23;;;;;;;18.04;25.46;96218.06;4988567;28;20027;-75
2023/04/17 10:33:53;;;;;;;14.95;11.93;;;;;;;17.90;25.30;96207.34;4985080;28;20046;-74
2023/04/17 10:36:37;;;;;;;17.38;13.73;;;;;;;17.89;25.61;96210.25;4976424;28;20495;-75
2023/04/17 10:39:15;;;;;;;13.82;12.05;;;;;;;17.90;25.77;96217.28;4976992;28;20030;-75
2023/04/17 10:42:02;;;;;;;11.85;8.25;;;;;;;18.09;25.61;96217.47;4978918;28;20034;-75
2023/04/17 10:44:34;;;;;;;;;;;;;;;17.74;26.14;96211.28;4974968;28;20126;-75
2023/04/17 10:47:06;;;;;;;16.70;13.32;;;;;;;18.03;25.17;96214.59;4979738;28;19936;-74
2023/04/17 10:49:58;;;;;;;12.32;9.30;;;;;;;17.98;25.56;96216.25;4969989;28;20077;-75
2023/04/17 10:52:39;;;;;;;14.00;8.93;;;;;;;17.71;25.92;96219.78;4971530;28;20047;-74
2023/04/17 10:55:06;;;;;;;10.20;6.72;;;;;;;18.11;25.41;96209.97;4972185;28;20050;-75
2023/04/17 10:57:50;;;;;;;;;;;;;;;18.66;23.74;96201.47;4974421;28;20539;-75
2023/04/17 11:00:17;;;;;;;11.77;9.93;;;;;;;18.69;23.58;96202.91;4975690;28;20004;-74
2023/04/17 11:02:48;;;;;;;17.80;14.27;;;;;;;18.51;25.05;96204.44;4981947;28;20049;-82
2023/04/17 11:05:14;;;;;;;17.10;12.38;;;;;;;18.78;24.54;96209.72;4976677;28;20515;-83
2023/04/17 11:07:40;;;;;;;14.15;11.77;;;;;;;18.78;24.15;96201.63;4975718;28;20045;-83
2023/04/17 11:10:06;;;;;;;20.00;14.05;;;;;;;18.95;23.46;96203.81;4974706;28;20464;-80
2023/04/17 11:12:31;;;;;;;11.65;6.65;;;;;;;18.91;22.84;96203.44;4971735;28;20053;-77
2023/04/17 11:15:03;;;;;;;10.32;8.23;;;;;;;18.72;22.38;96205.19;4971380;28;20424;-79
2023/04/17 11:17:28;;;;;;;11.15;8.70;;;;;;;18.46;23.06;96206.13;4971545;28;20519;-79
2023/04/17 11:19:55;;;;;;;9.95;7.65;;;;;;;19.05;23.26;96206.03;4975134;28;20034;-79
2023/04/17 11:22:20;;;;;;;8.35;5.97;;;;;;;18.52;22.46;96207.94;4960815;28;20057;-78